Time;durP1;ratioP1;P1;durP2;ratioP2;P2;SDS_P1;SDS_P2;PMS_P1;PMS_P2;Temp;Humidity;BMP_temperature;BMP_pressure;BME280_temperature;BME280_humidity;BME280_pressure;Samples;Min_cycle;Max_cycle;Signal;HPM_P1;HPM_P2
2021/04/22 00:00:41;;;;;;;11.35;1.98;;;7.50;83.50;;;;;;5043958;28;20041;-73
2021/04/22 00:03:07;;;;;;;7.90;2.08;;;7.50;83.40;;;;;;5029035;28;20006;-73
2021/04/22 00:05:33;;;;;;;12.05;2.20;;;7.50;82.90;;;;;;5060432;28;20017;-73
2021/04/22 00:07:59;;;;;;;9.75;2.10;;;7.50;82.70;;;;;;5043773;28;20067;-73
2021/04/22 00:10:34;;;;;;;10.75;2.40;;;7.60;82.90;;;;;;5043726;28;20378;-74
2021/04/22 00:13:01;;;;;;;11.25;2.50;;;7.70;82.80;;;;;;5063687;28;20023;-73
2021/04/22 00:15:26;;;;;;;14.93;2.67;;;7.70;80.80;;;;;;5063405;28;20024;-73
2021/04/22 00:17:54;;;;;;;12.60;2.40;;;7.80;78.70;;;;;;5063428;28;20019;-73
2021/04/22 00:20:19;;;;;;;13.40;2.10;;;7.80;78.80;;;;;;5063687;28;20005;-73
2021/04/22 00:22:45;;;;;;;12.00;2.28;;;7.80;78.70;;;;;;5047536;28;20290;-73
2021/04/22 00:25:11;;;;;;;11.38;2.42;;;7.80;78.50;;;;;;5047492;28;20257;-74
2021/04/22 00:27:37;;;;;;;12.50;2.45;;;7.80;78.20;;;;;;5047247;28;20009;-74
2021/04/22 00:30:05;;;;;;;14.93;2.47;;;7.80;77.70;;;;;;5063638;28;20047;-73
2021/04/22 00:32:31;;;;;;;16.27;2.28;;;7.90;77.10;;;;;;5063962;28;20013;-73
2021/04/22 00:34:57;;;;;;;13.68;2.10;;;7.90;77.50;;;;;;5063836;28;20071;-73
2021/04/22 00:37:22;;;;;;;10.68;2.08;;;7.90;77.10;;;;;;5047229;28;20031;-73
2021/04/22 00:39:48;;;;;;;14.82;2.53;;;7.90;77.40;;;;;;5046741;28;20013;-74
2021/04/22 00:42:13;;;;;;;11.25;2.00;;;7.90;77.60;;;;;;5046661;28;20082;-73
2021/04/22 00:44:39;;;;;;;10.93;1.83;;;7.90;77.80;;;;;;5047722;28;20215;-73
2021/04/22 00:47:05;;;;;;;11.77;2.05;;;7.90;77.90;;;;;;5062871;28;20032;-74
2021/04/22 00:49:30;;;;;;;9.98;2.38;;;8.00;77.40;;;;;;5046659;28;20017;-73
2021/04/22 00:51:56;;;;;;;10.77;2.28;;;8.00;75.40;;;;;;5063070;28;20028;-73
2021/04/22 00:54:21;;;;;;;12.85;2.20;;;8.00;75.30;;;;;;5048631;28;20257;-73
2021/04/22 00:56:47;;;;;;;17.17;2.72;;;8.00;75.80;;;;;;5067213;28;20335;-73
2021/04/22 00:59:13;;;;;;;11.65;2.30;;;8.00;75.60;;;;;;5050209;28;20218;-73
2021/04/22 01:01:39;;;;;;;13.35;2.70;;;8.00;75.20;;;;;;5066838;28;20076;-73
2021/04/22 01:04:05;;;;;;;14.55;3.05;;;7.90;75.20;;;;;;5049454;28;20040;-73
2021/04/22 01:06:31;;;;;;;17.90;3.03;;;7.80;76.30;;;;;;5049325;28;20009;-73
2021/04/22 01:08:57;;;;;;;17.13;2.38;;;7.80;76.90;;;;;;5066050;28;20020;-73
2021/04/22 01:11:29;;;;;;;14.02;2.90;;;7.80;76.40;;;;;;5065770;28;20052;-73
2021/04/22 01:13:55;;;;;;;14.77;2.40;;;7.80;75.40;;;;;;5047042;28;20041;-73
2021/04/22 01:16:20;;;;;;;8.73;1.73;;;7.80;72.30;;;;;;5046840;28;20028;-73
2021/04/22 01:18:46;;;;;;;8.52;1.90;;;7.80;70.10;;;;;;5013357;28;20014;-73
2021/04/22 01:21:25;;;;;;;16.27;2.80;;;7.80;66.30;;;;;;5049388;28;20005;-73
2021/04/22 01:23:51;;;;;;;8.85;1.70;;;7.80;65.30;;;;;;5033839;28;20084;-73
2021/04/22 01:26:21;;;;;;;10.63;1.77;;;7.80;65.70;;;;;;5016898;28;20041;-73
2021/04/22 01:28:47;;;;;;;9.48;1.85;;;7.80;64.30;;;;;;5029914;28;20056;-74
2021/04/22 01:31:13;;;;;;;8.00;1.52;;;7.70;62.70;;;;;;5053585;28;20021;-73
2021/04/22 01:33:39;;;;;;;9.70;1.80;;;7.70;62.80;;;;;;5066612;28;20013;-73
2021/04/22 01:36:05;;;;;;;10.32;1.83;;;7.70;63.40;;;;;;5049884;28;20020;-73
2021/04/22 01:38:30;;;;;;;10.00;2.13;;;7.60;63.80;;;;;;5049664;28;20015;-74
2021/04/22 01:40:57;;;;;;;7.53;1.80;;;7.60;64.70;;;;;;5065281;28;20017;-74
2021/04/22 01:43:23;;;;;;;12.68;2.33;;;7.60;66.30;;;;;;5066463;28;20013;-73
2021/04/22 01:45:48;;;;;;;12.13;2.30;;;7.60;69.30;;;;;;5066731;28;20012;-73
2021/04/22 01:48:14;;;;;;;20.50;3.05;;;7.60;72.70;;;;;;5050357;28;20326;-73
2021/04/22 01:50:40;;;;;;;15.95;3.00;;;7.70;74.10;;;;;;5067037;28;20021;-74
2021/04/22 01:53:06;;;;;;;12.05;2.38;;;7.70;71.10;;;;;;5050654;28;20013;-73
2021/04/22 01:55:39;;;;;;;10.00;1.95;;;7.80;65.70;;;;;;5067150;28;20079;-73
2021/04/22 01:58:05;;;;;;;14.52;2.35;;;7.80;64.80;;;;;;5051083;28;20024;-73
2021/04/22 02:00:39;;;;;;;13.43;2.45;;;7.80;64.20;;;;;;5067597;28;20328;-75
2021/04/22 02:03:06;;;;;;;16.77;2.83;;;7.70;65.70;;;;;;5067480;28;20334;-73
2021/04/22 02:05:31;;;;;;;11.73;2.20;;;7.60;67.50;;;;;;5071810;28;20039;-73
2021/04/22 02:07:57;;;;;;;13.80;2.33;;;7.60;67.70;;;;;;5054412;28;20021;-74
2021/04/22 02:10:23;;;;;;;10.57;2.13;;;7.50;64.60;;;;;;5068011;28;20016;-73
2021/04/22 02:12:49;;;;;;;9.32;1.70;;;7.50;62.50;;;;;;5068979;28;20017;-74
2021/04/22 02:15:24;;;;;;;12.25;2.03;;;7.40;62.40;;;;;;5035850;28;20047;-73
2021/04/22 02:17:49;;;;;;;8.88;1.80;;;7.40;62.20;;;;;;5057545;28;20012;-73
2021/04/22 02:20:15;;;;;;;9.88;2.08;;;7.30;62.20;;;;;;5055616;28;20013;-73
2021/04/22 02:22:41;;;;;;;9.82;1.98;;;7.30;61.20;;;;;;5052969;28;20074;-73
2021/04/22 02:25:08;;;;;;;13.48;2.35;;;7.30;60.30;;;;;;5056863;28;19994;-73
2021/04/22 02:27:36;;;;;;;14.23;1.95;;;7.30;59.80;;;;;;5077389;28;20012;-73
2021/04/22 02:30:05;;;;;;;11.27;2.40;;;7.30;60.60;;;;;;5061112;28;20089;-73
2021/04/22 02:32:31;;;;;;;11.57;2.33;;;7.20;62.60;;;;;;5061663;28;20048;-73
2021/04/22 02:34:56;;;;;;;14.23;2.30;;;7.20;64.70;;;;;;5061321;28;20044;-73
2021/04/22 02:37:22;;;;;;;14.43;2.88;;;7.20;67.10;;;;;;5076901;28;19997;-72
2021/04/22 02:39:48;;;;;;;14.68;2.35;;;7.10;68.20;;;;;;5043252;28;20009;-73
2021/04/22 02:42:13;;;;;;;15.93;2.83;;;7.10;68.00;;;;;;5051334;28;20310;-73
2021/04/22 02:44:39;;;;;;;17.45;2.80;;;7.10;68.00;;;;;;5032385;28;20013;-73
2021/04/22 02:47:05;;;;;;;7.50;1.85;;;7.10;68.70;;;;;;5031990;28;20025;-73
2021/04/22 02:49:31;;;;;;;12.82;1.80;;;7.00;67.40;;;;;;5065782;28;20039;-73
2021/04/22 02:51:56;;;;;;;8.20;1.80;;;7.00;64.30;;;;;;5065141;28;20242;-73
2021/04/22 02:54:22;;;;;;;10.85;2.45;;;6.90;62.40;;;;;;5064649;28;20345;-73
2021/04/22 02:56:48;;;;;;;6.82;1.85;;;6.90;60.80;;;;;;5048005;28;20020;-73
2021/04/22 02:59:13;;;;;;;10.15;1.92;;;6.90;58.90;;;;;;5047407;28;20337;-73
2021/04/22 03:01:39;;;;;;;10.05;1.73;;;6.90;59.20;;;;;;5064335;28;20040;-73
2021/04/22 03:04:05;;;;;;;10.73;1.75;;;6.90;59.40;;;;;;5064221;28;20008;-74
2021/04/22 03:06:30;;;;;;;11.30;2.05;;;6.90;59.50;;;;;;5047127;28;20017;-73
2021/04/22 03:08:56;;;;;;;11.10;1.92;;;6.90;59.00;;;;;;5064269;28;20024;-73
2021/04/22 03:11:22;;;;;;;10.80;2.03;;;6.80;58.70;;;;;;5047708;28;20013;-73
2021/04/22 03:13:47;;;;;;;6.13;1.75;;;6.90;57.80;;;;;;5064676;28;20020;-73
2021/04/22 03:16:13;;;;;;;8.48;1.40;;;6.80;57.90;;;;;;5030240;28;20200;-73
2021/04/22 03:18:39;;;;;;;11.27;1.35;;;6.80;57.00;;;;;;5047459;28;20013;-73
2021/04/22 03:21:04;;;;;;;7.35;1.75;;;6.80;57.10;;;;;;5032245;28;20063;-73
2021/04/22 03:23:30;;;;;;;7.38;1.50;;;6.70;57.70;;;;;;5048303;28;20009;-73
2021/04/22 03:25:56;;;;;;;4.60;1.10;;;6.70;58.40;;;;;;5031301;28;20063;-73
2021/04/22 03:28:21;;;;;;;9.85;2.25;;;6.70;59.40;;;;;;5046854;28;20368;-73
2021/04/22 03:30:47;;;;;;;10.73;1.80;;;6.70;60.80;;;;;;5063423;28;20067;-73
2021/04/22 03:33:12;;;;;;;7.80;1.70;;;6.70;62.00;;;;;;5064183;28;20017;-72
2021/04/22 03:35:38;;;;;;;9.75;2.03;;;6.70;63.20;;;;;;5063556;28;20025;-73
2021/04/22 03:38:04;;;;;;;7.32;1.73;;;6.70;61.80;;;;;;5046887;28;20004;-73
2021/04/22 03:40:29;;;;;;;7.38;1.45;;;6.70;59.60;;;;;;5063279;28;20005;-73
2021/04/22 03:42:55;;;;;;;11.98;1.70;;;6.70;60.00;;;;;;5062953;28;20037;-73
2021/04/22 03:45:21;;;;;;;7.95;1.77;;;6.60;60.80;;;;;;5047024;28;20215;-73
2021/04/22 03:47:47;;;;;;;7.78;1.83;;;6.60;61.00;;;;;;5047090;28;20009;-73
2021/04/22 03:50:14;;;;;;;13.82;2.00;;;6.60;61.00;;;;;;5044759;28;20445;-73
2021/04/22 03:52:40;;;;;;;7.05;1.65;;;6.60;59.30;;;;;;5047388;28;20327;-73
2021/04/22 03:55:06;;;;;;;7.10;1.50;;;6.60;58.30;;;;;;5043167;28;20075;-73
2021/04/22 03:57:32;;;;;;;8.13;1.35;;;6.50;57.40;;;;;;5028314;28;20017;-73
2021/04/22 03:59:58;;;;;;;11.10;2.00;;;6.50;56.90;;;;;;5046044;28;20017;-73
2021/04/22 04:02:23;;;;;;;18.08;2.10;;;6.50;56.70;;;;;;5028510;28;20017;-73
2021/04/22 04:04:49;;;;;;;5.93;1.33;;;6.50;56.70;;;;;;5054872;28;20016;-73
2021/04/22 04:07:15;;;;;;;6.32;1.38;;;6.40;56.80;;;;;;5064216;28;20021;-73
2021/04/22 04:09:40;;;;;;;8.30;1.20;;;6.40;57.20;;;;;;5047325;28;20017;-73
2021/04/22 04:12:07;;;;;;;8.48;1.25;;;6.40;57.90;;;;;;5030202;28;20084;-73
2021/04/22 04:14:34;;;;;;;6.65;1.77;;;6.40;58.70;;;;;;5048851;28;20070;-73
2021/04/22 04:17:01;;;;;;;9.18;1.92;;;6.40;58.80;;;;;;5044718;28;20040;-73
2021/04/22 04:19:27;;;;;;;8.25;1.45;;;6.50;59.00;;;;;;5036935;28;20076;-73
2021/04/22 04:21:52;;;;;;;9.70;1.50;;;6.50;58.60;;;;;;5031118;28;20062;-74
2021/04/22 04:24:18;;;;;;;7.00;1.35;;;6.40;57.20;;;;;;5048347;28;20394;-74
2021/04/22 04:26:43;;;;;;;7.28;1.52;;;6.50;56.30;;;;;;5031282;28;20195;-74
2021/04/22 04:29:09;;;;;;;5.45;1.45;;;6.50;55.40;;;;;;5031173;28;20021;-74
2021/04/22 04:31:34;;;;;;;7.10;1.65;;;6.50;55.40;;;;;;5047659;28;20025;-74
2021/04/22 04:34:00;;;;;;;5.63;1.30;;;6.50;55.90;;;;;;5064710;28;20015;-74
2021/04/22 04:36:26;;;;;;;6.63;1.33;;;6.50;56.50;;;;;;5034854;28;20400;-74
2021/04/22 04:38:51;;;;;;;7.03;1.45;;;6.50;57.00;;;;;;5053632;28;20348;-73
2021/04/22 04:41:17;;;;;;;8.23;1.63;;;6.50;57.40;;;;;;5054681;28;20005;-74
2021/04/22 04:43:43;;;;;;;7.20;1.65;;;6.50;58.20;;;;;;5066011;28;20016;-74
2021/04/22 04:46:12;;;;;;;12.75;1.98;;;6.40;58.50;;;;;;5048990;28;20012;-74
2021/04/22 04:48:38;;;;;;;9.40;2.00;;;6.40;58.70;;;;;;5033204;28;20084;-74
2021/04/22 04:51:04;;;;;;;7.05;1.23;;;6.40;58.40;;;;;;5027602;28;20089;-74
2021/04/22 04:53:29;;;;;;;10.13;1.80;;;6.40;58.40;;;;;;5045547;28;20025;-74
2021/04/22 04:55:55;;;;;;;6.97;1.67;;;6.50;57.80;;;;;;5030833;28;20040;-74
2021/04/22 04:58:22;;;;;;;10.25;1.67;;;6.50;56.70;;;;;;5066912;28;20290;-74
2021/04/22 05:00:47;;;;;;;6.05;1.45;;;6.50;55.90;;;;;;5046497;28;20005;-74
2021/04/22 05:03:13;;;;;;;7.05;1.35;;;6.50;55.70;;;;;;5046375;28;20035;-74
2021/04/22 05:05:39;;;;;;;8.73;1.70;;;6.40;55.80;;;;;;5058355;28;20374;-74
2021/04/22 05:08:05;;;;;;;6.75;1.23;;;6.50;55.90;;;;;;5031234;28;20318;-74
2021/04/22 05:10:30;;;;;;;10.48;1.70;;;6.50;56.60;;;;;;5049916;28;20017;-73
2021/04/22 05:12:56;;;;;;;8.25;1.65;;;6.50;57.50;;;;;;5068962;28;20128;-73
2021/04/22 05:15:21;;;;;;;10.93;1.95;;;6.50;57.90;;;;;;5052383;28;20021;-74
2021/04/22 05:17:47;;;;;;;5.15;1.52;;;6.60;57.20;;;;;;5052536;28;20009;-74
2021/04/22 05:20:13;;;;;;;9.93;1.75;;;6.60;56.10;;;;;;5052481;28;20005;-74
2021/04/22 05:22:39;;;;;;;7.80;1.42;;;6.70;56.80;;;;;;5053212;28;20013;-74
2021/04/22 05:25:05;;;;;;;6.18;1.20;;;6.70;56.50;;;;;;5069590;28;20090;-74
2021/04/22 05:27:31;;;;;;;10.30;1.90;;;6.70;56.00;;;;;;5074543;28;20072;-73
2021/04/22 05:29:56;;;;;;;10.38;1.35;;;6.70;56.10;;;;;;5066655;28;20253;-73
2021/04/22 05:32:22;;;;;;;7.05;1.60;;;6.70;56.30;;;;;;5050152;28;20371;-73
2021/04/22 05:34:48;;;;;;;9.18;1.80;;;6.80;57.10;;;;;;5073085;28;20387;-73
2021/04/22 05:37:13;;;;;;;6.88;1.60;;;6.80;56.40;;;;;;5034865;28;20075;-73
2021/04/22 05:39:39;;;;;;;8.45;1.15;;;6.80;55.20;;;;;;5064284;28;20009;-73
2021/04/22 05:42:05;;;;;;;7.75;1.42;;;6.80;54.70;;;;;;5049415;28;20009;-73
2021/04/22 05:44:30;;;;;;;7.38;1.60;;;6.90;54.50;;;;;;5065835;28;20050;-73
2021/04/22 05:46:56;;;;;;;6.20;1.45;;;6.90;53.70;;;;;;5064499;28;20017;-73
2021/04/22 05:49:22;;;;;;;7.85;1.60;;;7.00;53.70;;;;;;5064664;28;20017;-73
2021/04/22 05:51:47;;;;;;;7.40;1.55;;;7.00;53.60;;;;;;5064805;28;20054;-73
2021/04/22 05:54:13;;;;;;;4.45;1.10;;;7.10;53.20;;;;;;5064436;28;20087;-73
2021/04/22 05:56:39;;;;;;;7.07;1.63;;;7.10;52.50;;;;;;5061512;28;20067;-73
2021/04/22 05:59:05;;;;;;;7.75;1.58;;;7.10;52.30;;;;;;5045279;28;20330;-73
2021/04/22 06:01:30;;;;;;;10.77;1.67;;;7.10;52.80;;;;;;5060918;28;20004;-73
2021/04/22 06:03:56;;;;;;;9.85;1.55;;;7.20;53.60;;;;;;5044881;28;20375;-73
2021/04/22 06:06:22;;;;;;;6.55;1.42;;;7.20;53.50;;;;;;5056566;28;20031;-73
2021/04/22 06:08:47;;;;;;;10.50;1.20;;;7.30;54.30;;;;;;5059203;28;20041;-73
2021/04/22 06:11:13;;;;;;;10.40;2.15;;;7.40;53.40;;;;;;5056113;28;20441;-73
2021/04/22 06:13:39;;;;;;;4.75;1.33;;;7.40;51.90;;;;;;5040992;28;20017;-73
2021/04/22 06:16:05;;;;;;;8.05;1.27;;;7.30;50.80;;;;;;5046394;28;20222;-73
2021/04/22 06:18:30;;;;;;;8.13;1.65;;;7.30;50.90;;;;;;5051057;28;20016;-73
2021/04/22 06:20:56;;;;;;;4.57;1.40;;;7.30;50.40;;;;;;5032150;28;20406;-74
2021/04/22 06:23:22;;;;;;;7.55;1.20;;;7.30;50.40;;;;;;5037425;28;20028;-74
2021/04/22 06:25:48;;;;;;;7.13;1.17;;;7.40;50.50;;;;;;5048027;28;20017;-75
2021/04/22 06:28:15;;;;;;;4.63;1.42;;;7.40;50.60;;;;;;5030688;28;20074;-73
2021/04/22 06:30:40;;;;;;;6.68;1.27;;;7.50;51.10;;;;;;5024788;28;20013;-75
2021/04/22 06:33:06;;;;;;;4.85;1.70;;;7.70;51.50;;;;;;5018419;28;20036;-75
2021/04/22 06:35:32;;;;;;;8.23;1.50;;;7.80;51.80;;;;;;5033123;28;20245;-76
2021/04/22 06:37:57;;;;;;;9.48;1.48;;;8.20;52.00;;;;;;5016670;28;20758;-76
2021/04/22 06:40:23;;;;;;;6.43;1.15;;;9.00;50.50;;;;;;5016182;28;20394;-76
2021/04/22 06:42:49;;;;;;;6.95;1.40;;;9.50;49.20;;;;;;5002832;28;20027;-77
2021/04/22 06:45:15;;;;;;;6.80;1.17;;;9.60;48.40;;;;;;5022678;28;20134;-77
2021/04/22 06:47:41;;;;;;;6.68;1.40;;;9.50;46.50;;;;;;5023490;28;20015;-76
2021/04/22 06:50:08;;;;;;;6.88;1.50;;;9.30;46.80;;;;;;5044011;28;20076;-76
2021/04/22 06:52:34;;;;;;;8.80;1.42;;;8.90;47.20;;;;;;5034361;28;20030;-77
2021/04/22 06:55:00;;;;;;;11.40;1.50;;;9.40;47.20;;;;;;5034101;28;20041;-77
2021/04/22 06:57:26;;;;;;;5.30;1.25;;;9.20;46.80;;;;;;5005013;28;20016;-76
2021/04/22 06:59:52;;;;;;;16.17;2.00;;;8.90;47.70;;;;;;5056063;28;20027;-76
2021/04/22 07:02:18;;;;;;;8.75;1.40;;;8.70;48.40;;;;;;5036207;28;20067;-74
2021/04/22 07:04:44;;;;;;;7.57;1.85;;;8.50;48.20;;;;;;5028019;28;20024;-74
2021/04/22 07:07:10;;;;;;;7.75;1.40;;;8.10;48.90;;;;;;5049873;28;20967;-75
2021/04/22 07:09:35;;;;;;;4.78;1.13;;;9.00;48.30;;;;;;5039250;28;20416;-75
2021/04/22 07:12:02;;;;;;;4.68;1.13;;;8.90;46.00;;;;;;5016664;28;20333;-74
2021/04/22 07:14:28;;;;;;;5.60;1.00;;;9.00;45.90;;;;;;5017992;28;20029;-74
2021/04/22 07:16:53;;;;;;;6.15;1.10;;;9.10;45.20;;;;;;5043427;28;20031;-75
2021/04/22 07:19:19;;;;;;;7.07;1.20;;;8.90;44.70;;;;;;5026319;28;20035;-74
2021/04/22 07:21:45;;;;;;;4.75;1.10;;;9.10;44.80;;;;;;5036175;28;20077;-73
2021/04/22 07:24:11;;;;;;;3.85;1.10;;;9.40;43.50;;;;;;5011187;28;20115;-74
2021/04/22 07:26:36;;;;;;;8.07;1.38;;;9.70;43.90;;;;;;5037186;28;20089;-74
2021/04/22 07:29:03;;;;;;;6.85;1.33;;;9.80;44.90;;;;;;5030819;28;20036;-74
2021/04/22 07:31:29;;;;;;;8.48;1.20;;;9.20;46.80;;;;;;5020609;28;20017;-74
2021/04/22 07:33:55;;;;;;;7.63;1.85;;;8.80;49.10;;;;;;5040021;28;20027;-75
2021/04/22 07:36:21;;;;;;;8.23;1.33;;;8.90;50.60;;;;;;5014291;28;20414;-75
2021/04/22 07:38:47;;;;;;;9.27;2.00;;;8.70;50.60;;;;;;5029242;28;20326;-74
2021/04/22 07:41:13;;;;;;;8.02;1.20;;;8.80;50.20;;;;;;4999939;28;20172;-76
2021/04/22 07:43:39;;;;;;;4.75;1.27;;;8.90;49.10;;;;;;4983291;28;20497;-73
2021/04/22 07:46:04;;;;;;;8.13;1.60;;;8.50;48.40;;;;;;4981250;28;20043;-73
2021/04/22 07:48:30;;;;;;;5.55;1.40;;;8.50;48.10;;;;;;4988263;28;20656;-73
2021/04/22 07:50:56;;;;;;;4.78;1.20;;;8.40;47.60;;;;;;4990780;28;20748;-75
2021/04/22 07:53:22;;;;;;;4.32;1.00;;;9.20;46.70;;;;;;4978657;28;20919;-73
2021/04/22 07:55:48;;;;;;;7.97;1.17;;;9.40;43.90;;;;;;4979429;28;20040;-74
2021/04/22 07:58:14;;;;;;;11.77;1.55;;;10.00;43.60;;;;;;4965851;28;20245;-75
2021/04/22 08:00:41;;;;;;;8.70;1.38;;;10.00;43.80;;;;;;4962662;28;20288;-76
2021/04/22 08:03:07;;;;;;;11.65;1.67;;;9.80;43.50;;;;;;4971421;28;20191;-76
2021/04/22 08:05:36;;;;;;;5.68;1.30;;;9.70;43.10;;;;;;5000532;28;22222;-75
2021/04/22 08:08:02;;;;;;;7.63;1.15;;;10.00;43.90;;;;;;4983538;28;20268;-77
2021/04/22 08:10:29;;;;;;;14.80;1.95;;;10.40;44.80;;;;;;4947208;28;20200;-76
2021/04/22 08:12:55;;;;;;;9.00;1.30;;;10.10;45.70;;;;;;4984892;28;20056;-74
2021/04/22 08:15:21;;;;;;;6.53;1.10;;;10.20;47.20;;;;;;5010866;28;20338;-76
2021/04/22 08:17:46;;;;;;;7.60;1.45;;;10.60;47.00;;;;;;4975929;28;20125;-74
2021/04/22 08:20:20;;;;;;;8.35;1.38;;;10.90;45.20;;;;;;5006920;28;20738;-76
2021/04/22 08:22:46;;;;;;;9.30;1.42;;;10.30;44.60;;;;;;4989739;28;20024;-76
2021/04/22 08:25:20;;;;;;;9.15;1.38;;;10.10;45.70;;;;;;5013124;28;20016;-74
2021/04/22 08:27:50;;;;;;;5.20;1.10;;;10.10;44.10;;;;;;5010934;28;20258;-76
2021/04/22 08:30:23;;;;;;;7.78;1.30;;;10.40;43.90;;;;;;4974340;28;20131;-75
2021/04/22 08:32:49;;;;;;;4.57;1.20;;;10.50;43.60;;;;;;5019486;28;20061;-77
2021/04/22 08:35:15;;;;;;;5.93;1.10;;;11.00;44.30;;;;;;4985301;28;20281;-76
2021/04/22 08:37:40;;;;;;;21.00;1.42;;;10.80;44.90;;;;;;4999874;28;20073;-77
2021/04/22 08:40:07;;;;;;;6.43;1.10;;;11.10;43.00;;;;;;4996270;28;20226;-77
2021/04/22 08:42:33;;;;;;;8.02;1.98;;;10.90;42.90;;;;;;5002676;28;20258;-77
2021/04/22 08:45:00;;;;;;;8.90;1.30;;;10.90;41.70;;;;;;5011048;28;20387;-76
2021/04/22 08:47:27;;;;;;;11.77;1.50;;;11.20;41.10;;;;;;5001608;28;20884;-78
2021/04/22 08:49:52;;;;;;;6.18;1.10;;;11.40;41.30;;;;;;5037628;28;20138;-75
2021/04/22 08:52:18;;;;;;;7.35;1.15;;;11.60;41.10;;;;;;4980813;28;20897;-76
2021/04/22 08:54:44;;;;;;;6.15;0.82;;;11.50;39.70;;;;;;4981434;28;20220;-76
2021/04/22 08:57:10;;;;;;;9.05;1.00;;;11.00;39.10;;;;;;5022518;28;20055;-75
2021/04/22 08:59:35;;;;;;;7.82;1.08;;;11.20;39.50;;;;;;5027066;28;20035;-75
2021/04/22 09:02:01;;;;;;;3.75;1.10;;;11.50;39.00;;;;;;5005571;28;20046;-75
2021/04/22 09:04:27;;;;;;;2.45;0.90;;;12.10;38.50;;;;;;5023423;28;20097;-75
2021/04/22 09:06:53;;;;;;;3.70;1.13;;;11.80;37.00;;;;;;5037287;28;20017;-76
2021/04/22 09:09:18;;;;;;;7.40;0.75;;;11.50;38.70;;;;;;5057840;28;20023;-76
2021/04/22 09:11:46;;;;;;;4.80;1.25;;;12.00;39.70;;;;;;5008720;28;20017;-76
2021/04/22 09:14:13;;;;;;;9.10;1.15;;;11.80;40.70;;;;;;5007842;28;20009;-75
2021/04/22 09:16:39;;;;;;;8.95;1.27;;;11.60;41.40;;;;;;4999455;28;21052;-75
2021/04/22 09:19:12;;;;;;;6.88;1.20;;;11.50;44.00;;;;;;4986990;28;20096;-76
2021/04/22 09:21:41;;;;;;;4.93;1.33;;;11.20;44.50;;;;;;5017459;28;20065;-76
2021/04/22 09:24:13;;;;;;;4.05;1.38;;;11.00;44.20;;;;;;4999253;28;20043;-76
2021/04/22 09:26:45;;;;;;;4.82;1.30;;;10.90;41.80;;;;;;5003747;28;20190;-76
2021/04/22 09:29:16;;;;;;;7.28;1.40;;;11.10;40.50;;;;;;4990716;28;20723;-76
2021/04/22 09:31:42;;;;;;;3.85;1.10;;;11.50;40.00;;;;;;4985613;28;20021;-76
2021/04/22 09:34:10;;;;;;;6.20;1.50;;;11.80;40.30;;;;;;5049190;28;20090;-75
2021/04/22 09:36:46;;;;;;;5.25;1.20;;;11.80;40.70;;;;;;5031782;28;20070;-76
2021/04/22 09:39:14;;;;;;;7.78;1.45;;;11.50;42.80;;;;;;5046588;28;20016;-76
2021/04/22 09:41:39;;;;;;;6.32;1.10;;;11.50;43.20;;;;;;4999863;28;21447;-77
2021/04/22 09:44:10;;;;;;;5.72;1.20;;;11.40;43.30;;;;;;5023704;28;20048;-76
2021/04/22 09:46:41;;;;;;;4.20;1.10;;;11.30;43.10;;;;;;5013079;28;20039;-76
2021/04/22 09:49:20;;;;;;;4.05;1.27;;;11.20;43.30;;;;;;5022195;28;20020;-77
2021/04/22 09:51:47;;;;;;;3.13;0.88;;;11.40;41.90;;;;;;5015496;28;20363;-76
2021/04/22 09:54:18;;;;;;;3.53;0.93;;;11.50;39.50;;;;;;5020764;28;20376;-75
2021/04/22 09:56:52;;;;;;;4.57;1.10;;;10.90;39.00;;;;;;5011292;28;20223;-77
2021/04/22 09:59:19;;;;;;;3.05;0.85;;;10.70;41.20;;;;;;4973995;28;20172;-78
2021/04/22 10:01:59;;;;;;;5.97;1.08;;;11.20;42.30;;;;;;5001783;28;20021;-76
2021/04/22 10:04:31;;;;;;;4.75;1.27;;;10.80;42.30;;;;;;4995105;28;20373;-76
2021/04/22 10:06:57;;;;;;;5.63;1.00;;;10.30;44.00;;;;;;4984416;28;20213;-78
2021/04/22 10:09:36;;;;;;;5.40;1.17;;;10.00;46.00;;;;;;4987948;28;20503;-76
2021/04/22 10:12:03;;;;;;;5.20;1.00;;;9.50;48.00;;;;;;4973839;28;20026;-78
2021/04/22 10:14:33;;;;;;;5.57;1.30;;;9.40;48.60;;;;;;4992822;28;20428;-78
2021/04/22 10:16:59;;;;;;;4.05;1.27;;;9.80;49.10;;;;;;4958390;28;20392;-82
2021/04/22 10:19:25;;;;;;;4.78;1.48;;;10.70;47.60;;;;;;4967362;28;20013;-77
2021/04/22 10:21:51;;;;;;;6.57;1.15;;;11.00;46.70;;;;;;4993527;28;20029;-77
2021/04/22 10:24:16;;;;;;;5.00;1.58;;;11.00;44.20;;;;;;4991390;28;20009;-80
2021/04/22 10:26:43;;;;;;;3.97;1.10;;;11.10;43.90;;;;;;4979642;28;20016;-78
2021/04/22 10:29:09;;;;;;;4.97;1.23;;;11.10;45.30;;;;;;4972427;28;20035;-78
2021/04/22 10:31:37;;;;;;;5.35;1.48;;;11.20;45.80;;;;;;5003832;28;20367;-77
2021/04/22 10:34:03;;;;;;;5.72;1.23;;;10.40;45.90;;;;;;4998557;28;20457;-79
2021/04/22 10:36:31;;;;;;;4.57;1.20;;;10.30;47.70;;;;;;5022777;28;20070;-77
2021/04/22 10:38:57;;;;;;;8.63;1.70;;;10.70;49.10;;;;;;5001904;28;20017;-76
2021/04/22 10:41:22;;;;;;;5.97;1.30;;;10.90;46.80;;;;;;4989300;28;20493;-77
2021/04/22 10:43:48;;;;;;;5.45;1.90;;;11.10;45.70;;;;;;4969795;28;20044;-76
2021/04/22 10:46:17;;;;;;;6.72;1.17;;;10.90;45.40;;;;;;4975637;28;20499;-76
2021/04/22 10:48:43;;;;;;;6.10;1.48;;;11.00;44.80;;;;;;5003835;28;20066;-75
2021/04/22 10:51:09;;;;;;;9.15;1.98;;;11.20;44.70;;;;;;4977181;28;20849;-79
2021/04/22 10:53:39;;;;;;;7.55;1.65;;;11.10;46.30;;;;;;4978065;28;20045;-77
2021/04/22 10:56:05;;;;;;;5.68;1.70;;;11.20;46.60;;;;;;4963936;28;20994;-78
2021/04/22 10:58:40;;;;;;;4.78;1.50;;;11.10;46.80;;;;;;4990417;28;20191;-82
2021/04/22 11:01:08;;;;;;;5.32;1.35;;;11.30;44.50;;;;;;4955147;28;20050;-80
2021/04/22 11:03:46;;;;;;;7.13;1.90;;;10.70;46.00;;;;;;5021107;28;20081;-76
2021/04/22 11:06:13;;;;;;;7.10;1.80;;;10.30;47.00;;;;;;4977085;28;20260;-77
2021/04/22 11:08:39;;;;;;;5.57;1.50;;;9.90;45.00;;;;;;4969271;28;20124;-77
2021/04/22 11:11:35;;;;;;;9.38;1.73;;;9.80;45.30;;;;;;4999907;28;20013;-76
2021/04/22 11:14:04;;;;;;;7.85;1.25;;;9.60;46.30;;;;;;4971655;28;20404;-78
2021/04/22 11:16:32;;;;;;;7.10;1.48;;;9.80;47.20;;;;;;4973170;28;20036;-77
2021/04/22 11:18:58;;;;;;;5.85;1.50;;;9.90;47.50;;;;;;4984762;28;20099;-74
2021/04/22 11:21:27;;;;;;;9.32;1.88;;;9.80;48.70;;;;;;4998871;28;20072;-73
2021/04/22 11:23:54;;;;;;;5.82;1.45;;;9.80;49.30;;;;;;5011015;28;20024;-75
2021/04/22 11:26:34;;;;;;;6.90;1.65;;;9.70;49.10;;;;;;4977367;28;20532;-73
2021/04/22 11:29:16;;;;;;;5.28;1.35;;;9.70;47.80;;;;;;4974510;28;20041;-74
2021/04/22 11:31:46;;;;;;;;;;;9.80;46.60;;;;;;4983395;28;20224;-76
2021/04/22 11:34:13;;;;;;;6.15;1.30;;;9.70;46.70;;;;;;5007611;28;19913;-74
2021/04/22 11:36:52;;;;;;;7.03;1.30;;;9.90;47.00;;;;;;5016204;28;20290;-74
2021/04/22 11:39:28;;;;;;;4.70;1.08;;;9.70;47.40;;;;;;5012709;28;20077;-74
2021/04/22 11:41:59;;;;;;;8.55;1.48;;;9.90;48.60;;;;;;4992204;28;20294;-75
2021/04/22 11:44:42;;;;;;;5.17;1.23;;;9.80;49.80;;;;;;5006237;28;20067;-80
2021/04/22 11:47:27;;;;;;;6.68;1.75;;;9.70;50.40;;;;;;4972698;28;20053;-76
2021/04/22 11:50:15;;;;;;;5.53;1.42;;;9.80;51.80;;;;;;5021132;28;20190;-77
2021/04/22 11:52:54;;;;;;;11.43;1.70;;;9.70;52.00;;;;;;5005113;28;20017;-76
2021/04/22 11:55:34;;;;;;;4.25;1.27;;;9.60;53.90;;;;;;4980793;28;20044;-76
2021/04/22 11:58:14;;;;;;;5.75;1.92;;;9.70;52.50;;;;;;4994493;28;20323;-76
2021/04/22 12:00:41;;;;;;;8.32;1.40;;;9.80;48.00;;;;;;5022761;28;20636;-76
2021/04/22 12:03:07;;;;;;;6.60;1.25;;;9.90;47.80;;;;;;5016876;28;20380;-76
2021/04/22 12:05:33;;;;;;;3.35;0.90;;;9.80;47.00;;;;;;5030071;28;20195;-75
2021/04/22 12:08:01;;;;;;;4.43;1.13;;;9.70;46.70;;;;;;5009296;28;20070;-76
2021/04/22 12:10:27;;;;;;;6.60;1.30;;;9.60;47.30;;;;;;4986192;28;20855;-76
2021/04/22 12:13:01;;;;;;;5.88;1.35;;;9.70;48.20;;;;;;5013846;28;20016;-76
2021/04/22 12:15:28;;;;;;;7.60;1.13;;;9.60;47.70;;;;;;5018110;28;20136;-76
2021/04/22 12:17:53;;;;;;;5.38;1.00;;;9.70;50.30;;;;;;5025673;28;20027;-76
2021/04/22 12:20:20;;;;;;;9.30;1.35;;;9.80;48.60;;;;;;5015401;28;20017;-76
2021/04/22 12:22:47;;;;;;;7.05;1.20;;;9.70;48.60;;;;;;5013115;28;20258;-77
2021/04/22 12:25:15;;;;;;;7.10;1.35;;;9.70;49.70;;;;;;5018668;28;20017;-77
2021/04/22 12:27:56;;;;;;;5.10;1.10;;;9.90;50.30;;;;;;5021121;28;20047;-76
2021/04/22 12:30:35;;;;;;;6.75;1.45;;;9.90;48.30;;;;;;5005802;28;20114;-76
2021/04/22 12:33:23;;;;;;;6.55;1.40;;;10.00;48.50;;;;;;5023156;28;20050;-76
2021/04/22 12:35:53;;;;;;;6.70;1.35;;;10.20;49.90;;;;;;5042166;28;20100;-76
2021/04/22 12:38:29;;;;;;;3.17;1.08;;;10.00;49.40;;;;;;5012204;28;20041;-77
2021/04/22 12:40:57;;;;;;;5.40;1.55;;;9.90;49.60;;;;;;5011102;28;20044;-77
2021/04/22 12:43:24;;;;;;;2.70;0.90;;;9.80;48.40;;;;;;5011990;28;20025;-76
2021/04/22 12:45:49;;;;;;;5.65;1.50;;;9.80;47.80;;;;;;5019970;28;20017;-77
2021/04/22 12:48:15;;;;;;;6.38;1.13;;;9.90;49.10;;;;;;5016618;28;20697;-76
2021/04/22 12:50:43;;;;;;;8.32;1.30;;;9.70;48.90;;;;;;5003045;28;20021;-77
2021/04/22 12:53:18;;;;;;;5.28;1.42;;;9.70;48.70;;;;;;4949057;28;20696;-76